sensor_id;sensor_type;location;lat;lon;timestamp;temperature;humidity
13850;DHT22;6995;52.618;13.488;2024-01-30T00:01:26;2.30;99.90
13850;DHT22;6995;52.618;13.488;2024-01-30T00:03:52;2.20;99.90
13850;DHT22;6995;52.618;13.488;2024-01-30T00:06:21;2.20;99.90
13850;DHT22;6995;52.618;13.488;2024-01-30T00:08:47;2.20;99.90
13850;DHT22;6995;52.618;13.488;2024-01-30T00:11:15;2.20;99.90
13850;DHT22;6995;52.618;13.488;2024-01-30T00:13:41;2.30;99.90
13850;DHT22;6995;52.618;13.488;2024-01-30T00:16:07;2.30;99.90
13850;DHT22;6995;52.618;13.488;2024-01-30T00:18:34;2.30;99.90
13850;DHT22;6995;52.618;13.488;2024-01-30T00:20:59;2.30;99.90
13850;DHT22;6995;52.618;13.488;2024-01-30T00:23:25;2.30;99.90
13850;DHT22;6995;52.618;13.488;2024-01-30T00:25:51;2.30;99.90
13850;DHT22;6995;52.618;13.488;2024-01-30T00:28:16;2.20;99.90
13850;DHT22;6995;52.618;13.488;2024-01-30T00:30:42;2.20;99.90
13850;DHT22;6995;52.618;13.488;2024-01-30T00:33:09;2.20;99.90
13850;DHT22;6995;52.618;13.488;2024-01-30T00:35:34;2.20;99.90
13850;DHT22;6995;52.618;13.488;2024-01-30T00:38:00;2.20;99.90
13850;DHT22;6995;52.618;13.488;2024-01-30T00:40:26;2.10;99.90
13850;DHT22;6995;52.618;13.488;2024-01-30T00:42:52;2.10;99.90
13850;DHT22;6995;52.618;13.488;2024-01-30T00:45:17;2.10;99.90
13850;DHT22;6995;52.618;13.488;2024-01-30T00:47:44;2.10;99.90
13850;DHT22;6995;52.618;13.488;2024-01-30T00:50:10;2.10;99.90
13850;DHT22;6995;52.618;13.488;2024-01-30T00:52:36;2.10;99.90
13850;DHT22;6995;52.618;13.488;2024-01-30T00:55:02;2.10;99.90
13850;DHT22;6995;52.618;13.488;2024-01-30T00:57:28;2.10;99.90
13850;DHT22;6995;52.618;13.488;2024-01-30T00:59:54;2.10;99.90
13850;DHT22;6995;52.618;13.488;2024-01-30T01:02:19;2.00;99.90
13850;DHT22;6995;52.618;13.488;2024-01-30T01:04:45;2.00;99.90
13850;DHT22;6995;52.618;13.488;2024-01-30T01:07:11;2.00;99.90
13850;DHT22;6995;52.618;13.488;2024-01-30T01:09:37;2.00;99.90
13850;DHT22;6995;52.618;13.488;2024-01-30T01:12:03;2.00;99.90
13850;DHT22;6995;52.618;13.488;2024-01-30T01:14:30;2.00;99.90
13850;DHT22;6995;52.618;13.488;2024-01-30T01:16:56;2.00;99.90
13850;DHT22;6995;52.618;13.488;2024-01-30T01:19:22;2.00;99.90
13850;DHT22;6995;52.618;13.488;2024-01-30T01:21:47;2.00;99.90
13850;DHT22;6995;52.618;13.488;2024-01-30T01:24:13;2.00;99.90
13850;DHT22;6995;52.618;13.488;2024-01-30T01:26:39;2.00;99.90
13850;DHT22;6995;52.618;13.488;2024-01-30T01:29:06;2.00;99.90
13850;DHT22;6995;52.618;13.488;2024-01-30T01:31:38;2.00;99.90
13850;DHT22;6995;52.618;13.488;2024-01-30T01:34:11;2.00;99.90
13850;DHT22;6995;52.618;13.488;2024-01-30T01:36:37;1.90;99.90
13850;DHT22;6995;52.618;13.488;2024-01-30T01:39:03;1.90;99.90
13850;DHT22;6995;52.618;13.488;2024-01-30T01:41:32;1.90;99.90
13850;DHT22;6995;52.618;13.488;2024-01-30T01:43:59;1.90;99.90
13850;DHT22;6995;52.618;13.488;2024-01-30T01:46:27;1.90;99.90
13850;DHT22;6995;52.618;13.488;2024-01-30T01:48:53;1.90;99.90
13850;DHT22;6995;52.618;13.488;2024-01-30T01:51:20;1.80;99.90
13850;DHT22;6995;52.618;13.488;2024-01-30T01:53:46;1.80;99.90
13850;DHT22;6995;52.618;13.488;2024-01-30T01:56:12;1.80;99.90
13850;DHT22;6995;52.618;13.488;2024-01-30T01:58:38;1.70;99.90
13850;DHT22;6995;52.618;13.488;2024-01-30T02:01:04;1.70;99.90
13850;DHT22;6995;52.618;13.488;2024-01-30T02:03:30;1.70;99.90
13850;DHT22;6995;52.618;13.488;2024-01-30T02:05:56;1.60;99.90
13850;DHT22;6995;52.618;13.488;2024-01-30T02:08:23;1.70;99.90
13850;DHT22;6995;52.618;13.488;2024-01-30T02:10:49;1.70;99.90
13850;DHT22;6995;52.618;13.488;2024-01-30T02:13:15;1.80;99.90
13850;DHT22;6995;52.618;13.488;2024-01-30T02:15:41;1.80;99.90
13850;DHT22;6995;52.618;13.488;2024-01-30T02:18:06;1.80;99.90
13850;DHT22;6995;52.618;13.488;2024-01-30T02:20:35;1.80;99.90
13850;DHT22;6995;52.618;13.488;2024-01-30T02:23:01;1.80;99.90
13850;DHT22;6995;52.618;13.488;2024-01-30T02:25:38;1.80;99.90
13850;DHT22;6995;52.618;13.488;2024-01-30T02:28:19;1.80;99.90
13850;DHT22;6995;52.618;13.488;2024-01-30T02:30:45;1.80;99.90
13850;DHT22;6995;52.618;13.488;2024-01-30T02:33:11;1.80;99.90
13850;DHT22;6995;52.618;13.488;2024-01-30T02:35:37;1.80;99.90
13850;DHT22;6995;52.618;13.488;2024-01-30T02:38:03;1.90;99.90
13850;DHT22;6995;52.618;13.488;2024-01-30T02:40:28;1.90;99.90
13850;DHT22;6995;52.618;13.488;2024-01-30T02:42:54;1.90;99.90
13850;DHT22;6995;52.618;13.488;2024-01-30T02:45:20;1.90;99.90
13850;DHT22;6995;52.618;13.488;2024-01-30T02:47:46;1.90;99.90
13850;DHT22;6995;52.618;13.488;2024-01-30T02:50:11;1.90;99.90
13850;DHT22;6995;52.618;13.488;2024-01-30T02:52:37;1.90;99.90
13850;DHT22;6995;52.618;13.488;2024-01-30T02:55:03;1.80;99.90
13850;DHT22;6995;52.618;13.488;2024-01-30T02:57:29;1.80;99.90
13850;DHT22;6995;52.618;13.488;2024-01-30T02:59:54;1.70;99.90
13850;DHT22;6995;52.618;13.488;2024-01-30T03:02:20;1.70;99.90
13850;DHT22;6995;52.618;13.488;2024-01-30T03:04:46;1.70;99.90
13850;DHT22;6995;52.618;13.488;2024-01-30T03:07:12;1.70;99.90
13850;DHT22;6995;52.618;13.488;2024-01-30T03:09:38;1.70;99.90
13850;DHT22;6995;52.618;13.488;2024-01-30T03:12:04;1.70;99.90
13850;DHT22;6995;52.618;13.488;2024-01-30T03:14:31;1.70;99.90
13850;DHT22;6995;52.618;13.488;2024-01-30T03:16:57;1.70;99.90
13850;DHT22;6995;52.618;13.488;2024-01-30T03:19:23;1.70;99.90
13850;DHT22;6995;52.618;13.488;2024-01-30T03:21:48;1.70;99.90
13850;DHT22;6995;52.618;13.488;2024-01-30T03:24:14;1.70;99.90
13850;DHT22;6995;52.618;13.488;2024-01-30T03:26:39;1.60;99.90
13850;DHT22;6995;52.618;13.488;2024-01-30T03:29:05;1.60;99.90
13850;DHT22;6995;52.618;13.488;2024-01-30T03:31:31;1.50;99.90
13850;DHT22;6995;52.618;13.488;2024-01-30T03:33:56;1.60;99.90
13850;DHT22;6995;52.618;13.488;2024-01-30T03:36:23;1.50;99.90
13850;DHT22;6995;52.618;13.488;2024-01-30T03:38:48;1.50;99.90
13850;DHT22;6995;52.618;13.488;2024-01-30T03:41:14;1.50;99.90
13850;DHT22;6995;52.618;13.488;2024-01-30T03:43:40;1.50;99.90
13850;DHT22;6995;52.618;13.488;2024-01-30T03:46:06;1.40;99.90
13850;DHT22;6995;52.618;13.488;2024-01-30T03:48:31;1.40;99.90
13850;DHT22;6995;52.618;13.488;2024-01-30T03:50:57;1.40;99.90
13850;DHT22;6995;52.618;13.488;2024-01-30T03:53:23;1.40;99.90
13850;DHT22;6995;52.618;13.488;2024-01-30T03:55:48;1.50;99.90
13850;DHT22;6995;52.618;13.488;2024-01-30T03:58:14;1.40;99.90
13850;DHT22;6995;52.618;13.488;2024-01-30T04:00:40;1.50;99.90
13850;DHT22;6995;52.618;13.488;2024-01-30T04:03:06;1.50;99.90
13850;DHT22;6995;52.618;13.488;2024-01-30T04:05:32;1.50;99.90
13850;DHT22;6995;52.618;13.488;2024-01-30T04:07:58;1.50;99.90
13850;DHT22;6995;52.618;13.488;2024-01-30T04:10:24;1.50;99.90
13850;DHT22;6995;52.618;13.488;2024-01-30T04:12:50;1.50;99.90
13850;DHT22;6995;52.618;13.488;2024-01-30T04:15:17;1.50;99.90
13850;DHT22;6995;52.618;13.488;2024-01-30T04:17:43;1.60;99.90
13850;DHT22;6995;52.618;13.488;2024-01-30T04:20:14;1.50;99.90
13850;DHT22;6995;52.618;13.488;2024-01-30T04:22:40;1.60;99.90
13850;DHT22;6995;52.618;13.488;2024-01-30T04:25:06;1.60;99.90
13850;DHT22;6995;52.618;13.488;2024-01-30T04:27:31;1.60;99.90
13850;DHT22;6995;52.618;13.488;2024-01-30T04:29:57;1.60;99.90
13850;DHT22;6995;52.618;13.488;2024-01-30T04:32:23;1.60;99.90
13850;DHT22;6995;52.618;13.488;2024-01-30T04:34:48;1.60;99.90
13850;DHT22;6995;52.618;13.488;2024-01-30T04:37:14;1.60;99.90
13850;DHT22;6995;52.618;13.488;2024-01-30T04:39:40;1.60;99.90
13850;DHT22;6995;52.618;13.488;2024-01-30T04:42:06;1.60;99.90
13850;DHT22;6995;52.618;13.488;2024-01-30T04:44:32;1.60;99.90
13850;DHT22;6995;52.618;13.488;2024-01-30T04:46:57;1.70;99.90
13850;DHT22;6995;52.618;13.488;2024-01-30T04:49:27;1.60;99.90
13850;DHT22;6995;52.618;13.488;2024-01-30T04:51:52;1.60;99.90
13850;DHT22;6995;52.618;13.488;2024-01-30T04:54:18;1.60;99.90
13850;DHT22;6995;52.618;13.488;2024-01-30T04:56:44;1.60;99.90
13850;DHT22;6995;52.618;13.488;2024-01-30T04:59:09;1.60;99.90
13850;DHT22;6995;52.618;13.488;2024-01-30T05:01:35;1.50;99.90
13850;DHT22;6995;52.618;13.488;2024-01-30T05:04:01;1.50;99.90
13850;DHT22;6995;52.618;13.488;2024-01-30T05:06:27;1.50;99.90
13850;DHT22;6995;52.618;13.488;2024-01-30T05:08:53;1.50;99.90
13850;DHT22;6995;52.618;13.488;2024-01-30T05:11:19;1.50;99.90
13850;DHT22;6995;52.618;13.488;2024-01-30T05:13:45;1.50;99.90
13850;DHT22;6995;52.618;13.488;2024-01-30T05:16:10;1.50;99.90
13850;DHT22;6995;52.618;13.488;2024-01-30T05:18:36;1.50;99.90
13850;DHT22;6995;52.618;13.488;2024-01-30T05:21:02;1.40;99.90
13850;DHT22;6995;52.618;13.488;2024-01-30T05:23:29;1.50;99.90
13850;DHT22;6995;52.618;13.488;2024-01-30T05:25:54;1.50;99.90
13850;DHT22;6995;52.618;13.488;2024-01-30T05:28:20;1.50;99.90
13850;DHT22;6995;52.618;13.488;2024-01-30T05:30:45;1.50;99.90
13850;DHT22;6995;52.618;13.488;2024-01-30T05:33:11;1.50;99.90
13850;DHT22;6995;52.618;13.488;2024-01-30T05:35:38;1.50;99.90
13850;DHT22;6995;52.618;13.488;2024-01-30T05:38:03;1.50;99.90
13850;DHT22;6995;52.618;13.488;2024-01-30T05:40:30;1.50;99.90
13850;DHT22;6995;52.618;13.488;2024-01-30T05:42:56;1.60;99.90
13850;DHT22;6995;52.618;13.488;2024-01-30T05:45:23;1.60;99.90
13850;DHT22;6995;52.618;13.488;2024-01-30T05:47:49;1.60;99.90
13850;DHT22;6995;52.618;13.488;2024-01-30T05:50:15;1.60;99.90
13850;DHT22;6995;52.618;13.488;2024-01-30T05:52:40;1.60;99.90
13850;DHT22;6995;52.618;13.488;2024-01-30T05:55:06;1.60;99.90
13850;DHT22;6995;52.618;13.488;2024-01-30T05:57:32;1.60;99.90
13850;DHT22;6995;52.618;13.488;2024-01-30T06:00:04;1.50;99.90
13850;DHT22;6995;52.618;13.488;2024-01-30T06:02:31;1.50;99.90
13850;DHT22;6995;52.618;13.488;2024-01-30T06:04:56;1.60;99.90
13850;DHT22;6995;52.618;13.488;2024-01-30T06:07:22;1.50;99.90
13850;DHT22;6995;52.618;13.488;2024-01-30T06:09:48;1.50;99.90
13850;DHT22;6995;52.618;13.488;2024-01-30T06:12:14;1.50;99.90
13850;DHT22;6995;52.618;13.488;2024-01-30T06:14:39;1.50;99.90
13850;DHT22;6995;52.618;13.488;2024-01-30T06:17:08;1.50;99.90
13850;DHT22;6995;52.618;13.488;2024-01-30T06:19:34;1.60;99.90
13850;DHT22;6995;52.618;13.488;2024-01-30T06:21:59;1.60;99.90
13850;DHT22;6995;52.618;13.488;2024-01-30T06:24:25;1.60;99.90
13850;DHT22;6995;52.618;13.488;2024-01-30T06:26:51;1.70;99.90
13850;DHT22;6995;52.618;13.488;2024-01-30T06:29:17;1.70;99.90
13850;DHT22;6995;52.618;13.488;2024-01-30T06:31:42;1.70;99.90
13850;DHT22;6995;52.618;13.488;2024-01-30T06:34:11;1.80;99.90
13850;DHT22;6995;52.618;13.488;2024-01-30T06:36:37;1.80;99.90
13850;DHT22;6995;52.618;13.488;2024-01-30T06:39:03;1.70;99.90
13850;DHT22;6995;52.618;13.488;2024-01-30T06:41:29;1.70;99.90
13850;DHT22;6995;52.618;13.488;2024-01-30T06:43:56;1.70;99.90
13850;DHT22;6995;52.618;13.488;2024-01-30T06:46:21;1.70;99.90
13850;DHT22;6995;52.618;13.488;2024-01-30T06:48:47;1.80;99.90
13850;DHT22;6995;52.618;13.488;2024-01-30T06:51:13;1.80;99.90
13850;DHT22;6995;52.618;13.488;2024-01-30T06:53:41;1.80;99.90
13850;DHT22;6995;52.618;13.488;2024-01-30T06:56:07;1.80;99.90
13850;DHT22;6995;52.618;13.488;2024-01-30T06:58:33;1.90;99.90
13850;DHT22;6995;52.618;13.488;2024-01-30T07:00:59;1.90;99.90
13850;DHT22;6995;52.618;13.488;2024-01-30T07:03:24;1.90;99.90
13850;DHT22;6995;52.618;13.488;2024-01-30T07:05:50;2.00;99.90
13850;DHT22;6995;52.618;13.488;2024-01-30T07:08:17;2.00;99.90
13850;DHT22;6995;52.618;13.488;2024-01-30T07:10:43;2.00;99.90
13850;DHT22;6995;52.618;13.488;2024-01-30T07:13:12;2.00;99.90
13850;DHT22;6995;52.618;13.488;2024-01-30T07:15:38;2.00;99.90
13850;DHT22;6995;52.618;13.488;2024-01-30T07:18:05;2.10;99.90
13850;DHT22;6995;52.618;13.488;2024-01-30T07:20:31;2.20;99.90
13850;DHT22;6995;52.618;13.488;2024-01-30T07:23:00;2.20;99.90
13850;DHT22;6995;52.618;13.488;2024-01-30T07:25:26;2.30;99.90
13850;DHT22;6995;52.618;13.488;2024-01-30T07:27:56;2.30;99.90
13850;DHT22;6995;52.618;13.488;2024-01-30T07:30:22;2.40;99.90
13850;DHT22;6995;52.618;13.488;2024-01-30T07:32:48;2.40;99.90
13850;DHT22;6995;52.618;13.488;2024-01-30T07:35:14;2.50;99.90
13850;DHT22;6995;52.618;13.488;2024-01-30T07:37:40;2.50;99.90
13850;DHT22;6995;52.618;13.488;2024-01-30T07:40:06;2.60;99.90
13850;DHT22;6995;52.618;13.488;2024-01-30T07:42:32;2.70;99.90
13850;DHT22;6995;52.618;13.488;2024-01-30T07:44:59;2.70;99.90
13850;DHT22;6995;52.618;13.488;2024-01-30T07:47:24;2.80;99.90
13850;DHT22;6995;52.618;13.488;2024-01-30T07:49:50;2.90;99.90
13850;DHT22;6995;52.618;13.488;2024-01-30T07:52:16;2.80;99.90
13850;DHT22;6995;52.618;13.488;2024-01-30T07:54:42;3.00;99.90
13850;DHT22;6995;52.618;13.488;2024-01-30T07:57:13;3.00;99.90
13850;DHT22;6995;52.618;13.488;2024-01-30T07:59:41;3.00;99.90
13850;DHT22;6995;52.618;13.488;2024-01-30T08:02:07;3.20;99.90
13850;DHT22;6995;52.618;13.488;2024-01-30T08:04:33;3.20;99.90
13850;DHT22;6995;52.618;13.488;2024-01-30T08:06:59;3.30;99.90
13850;DHT22;6995;52.618;13.488;2024-01-30T08:09:24;3.30;99.90
13850;DHT22;6995;52.618;13.488;2024-01-30T08:11:50;3.40;99.90
13850;DHT22;6995;52.618;13.488;2024-01-30T08:14:15;3.50;99.90
13850;DHT22;6995;52.618;13.488;2024-01-30T08:16:41;3.50;99.90
13850;DHT22;6995;52.618;13.488;2024-01-30T08:19:07;3.50;99.90
13850;DHT22;6995;52.618;13.488;2024-01-30T08:21:32;3.60;99.90
13850;DHT22;6995;52.618;13.488;2024-01-30T08:24:05;3.70;99.90
13850;DHT22;6995;52.618;13.488;2024-01-30T08:26:32;3.80;99.90
13850;DHT22;6995;52.618;13.488;2024-01-30T08:28:57;3.90;99.90
13850;DHT22;6995;52.618;13.488;2024-01-30T08:31:23;3.90;99.90
13850;DHT22;6995;52.618;13.488;2024-01-30T08:33:49;4.00;99.90
13850;DHT22;6995;52.618;13.488;2024-01-30T08:36:16;4.10;99.90
13850;DHT22;6995;52.618;13.488;2024-01-30T08:38:42;4.10;99.90
13850;DHT22;6995;52.618;13.488;2024-01-30T08:41:08;4.10;99.90
13850;DHT22;6995;52.618;13.488;2024-01-30T08:43:34;4.10;99.90
13850;DHT22;6995;52.618;13.488;2024-01-30T08:46:00;4.20;99.90
13850;DHT22;6995;52.618;13.488;2024-01-30T08:48:26;4.30;99.90
13850;DHT22;6995;52.618;13.488;2024-01-30T08:50:51;4.30;99.90
13850;DHT22;6995;52.618;13.488;2024-01-30T08:53:17;4.50;99.90
13850;DHT22;6995;52.618;13.488;2024-01-30T08:55:43;4.50;99.90
13850;DHT22;6995;52.618;13.488;2024-01-30T08:58:09;4.60;99.90
13850;DHT22;6995;52.618;13.488;2024-01-30T09:00:35;4.50;99.90
13850;DHT22;6995;52.618;13.488;2024-01-30T09:03:00;4.60;99.90
13850;DHT22;6995;52.618;13.488;2024-01-30T09:05:26;4.70;99.90
13850;DHT22;6995;52.618;13.488;2024-01-30T09:07:52;4.70;99.90
13850;DHT22;6995;52.618;13.488;2024-01-30T09:10:17;4.80;99.90
13850;DHT22;6995;52.618;13.488;2024-01-30T09:12:43;4.90;99.90
13850;DHT22;6995;52.618;13.488;2024-01-30T09:15:09;4.90;99.90
13850;DHT22;6995;52.618;13.488;2024-01-30T09:17:35;5.10;99.90
13850;DHT22;6995;52.618;13.488;2024-01-30T09:20:00;5.20;99.90
13850;DHT22;6995;52.618;13.488;2024-01-30T09:22:26;5.30;99.90
13850;DHT22;6995;52.618;13.488;2024-01-30T09:24:52;5.30;99.90
13850;DHT22;6995;52.618;13.488;2024-01-30T09:27:18;5.40;99.90
13850;DHT22;6995;52.618;13.488;2024-01-30T09:29:44;5.50;99.90
13850;DHT22;6995;52.618;13.488;2024-01-30T09:32:10;5.60;99.90
13850;DHT22;6995;52.618;13.488;2024-01-30T09:34:35;5.60;99.90
13850;DHT22;6995;52.618;13.488;2024-01-30T09:37:01;5.70;99.90
13850;DHT22;6995;52.618;13.488;2024-01-30T09:39:27;5.70;99.90
13850;DHT22;6995;52.618;13.488;2024-01-30T09:42:02;5.80;99.90
13850;DHT22;6995;52.618;13.488;2024-01-30T09:44:30;5.80;99.90
13850;DHT22;6995;52.618;13.488;2024-01-30T09:46:57;6.00;99.90
13850;DHT22;6995;52.618;13.488;2024-01-30T09:49:31;6.00;99.90
13850;DHT22;6995;52.618;13.488;2024-01-30T09:51:58;6.00;99.90
13850;DHT22;6995;52.618;13.488;2024-01-30T09:54:24;6.10;99.90
13850;DHT22;6995;52.618;13.488;2024-01-30T09:56:50;6.10;99.90
13850;DHT22;6995;52.618;13.488;2024-01-30T09:59:15;6.30;99.90
13850;DHT22;6995;52.618;13.488;2024-01-30T10:01:42;6.30;99.90
13850;DHT22;6995;52.618;13.488;2024-01-30T10:04:08;6.40;99.90
13850;DHT22;6995;52.618;13.488;2024-01-30T10:06:34;6.50;99.90
13850;DHT22;6995;52.618;13.488;2024-01-30T10:09:00;6.50;99.90
13850;DHT22;6995;52.618;13.488;2024-01-30T10:11:25;6.60;99.90
13850;DHT22;6995;52.618;13.488;2024-01-30T10:13:51;6.60;99.90
13850;DHT22;6995;52.618;13.488;2024-01-30T10:16:17;6.70;99.90
13850;DHT22;6995;52.618;13.488;2024-01-30T10:18:43;6.60;99.90
13850;DHT22;6995;52.618;13.488;2024-01-30T10:21:10;6.70;99.90
13850;DHT22;6995;52.618;13.488;2024-01-30T10:23:36;6.80;99.90
13850;DHT22;6995;52.618;13.488;2024-01-30T10:26:07;6.80;99.90
13850;DHT22;6995;52.618;13.488;2024-01-30T10:28:33;6.70;99.90
13850;DHT22;6995;52.618;13.488;2024-01-30T10:31:00;6.80;99.90
13850;DHT22;6995;52.618;13.488;2024-01-30T10:33:27;6.90;99.90
13850;DHT22;6995;52.618;13.488;2024-01-30T10:36:05;6.90;99.90
13850;DHT22;6995;52.618;13.488;2024-01-30T10:38:32;7.00;99.90
13850;DHT22;6995;52.618;13.488;2024-01-30T10:40:59;7.00;99.90
13850;DHT22;6995;52.618;13.488;2024-01-30T10:43:35;7.10;99.90
13850;DHT22;6995;52.618;13.488;2024-01-30T10:46:10;7.20;99.90
13850;DHT22;6995;52.618;13.488;2024-01-30T10:48:43;7.30;99.90
13850;DHT22;6995;52.618;13.488;2024-01-30T10:51:10;7.30;99.90
13850;DHT22;6995;52.618;13.488;2024-01-30T10:53:38;7.40;99.90
13850;DHT22;6995;52.618;13.488;2024-01-30T10:56:05;7.50;99.90
13850;DHT22;6995;52.618;13.488;2024-01-30T10:58:31;7.50;99.90
13850;DHT22;6995;52.618;13.488;2024-01-30T11:00:57;7.70;99.90
13850;DHT22;6995;52.618;13.488;2024-01-30T11:03:23;7.70;99.90
13850;DHT22;6995;52.618;13.488;2024-01-30T11:05:52;7.80;99.90
13850;DHT22;6995;52.618;13.488;2024-01-30T11:08:25;7.90;99.90
13850;DHT22;6995;52.618;13.488;2024-01-30T11:10:57;8.00;99.90
13850;DHT22;6995;52.618;13.488;2024-01-30T11:13:30;8.00;99.90
13850;DHT22;6995;52.618;13.488;2024-01-30T11:15:59;8.10;99.90
13850;DHT22;6995;52.618;13.488;2024-01-30T11:18:26;8.10;99.90
13850;DHT22;6995;52.618;13.488;2024-01-30T11:20:56;8.20;99.90
13850;DHT22;6995;52.618;13.488;2024-01-30T11:23:22;8.30;99.90
13850;DHT22;6995;52.618;13.488;2024-01-30T11:25:48;8.40;99.90
13850;DHT22;6995;52.618;13.488;2024-01-30T11:28:15;8.40;99.90
13850;DHT22;6995;52.618;13.488;2024-01-30T11:30:44;8.40;99.90
13850;DHT22;6995;52.618;13.488;2024-01-30T11:33:11;8.50;99.90
13850;DHT22;6995;52.618;13.488;2024-01-30T11:35:41;8.60;99.90
13850;DHT22;6995;52.618;13.488;2024-01-30T11:38:16;8.50;99.90
13850;DHT22;6995;52.618;13.488;2024-01-30T11:40:43;8.70;99.90
13850;DHT22;6995;52.618;13.488;2024-01-30T11:43:10;8.70;99.90
13850;DHT22;6995;52.618;13.488;2024-01-30T11:45:37;8.70;99.90
13850;DHT22;6995;52.618;13.488;2024-01-30T11:48:03;8.60;99.90
13850;DHT22;6995;52.618;13.488;2024-01-30T11:50:33;8.60;99.90
13850;DHT22;6995;52.618;13.488;2024-01-30T11:53:00;8.70;99.90
13850;DHT22;6995;52.618;13.488;2024-01-30T11:55:26;8.70;99.90
13850;DHT22;6995;52.618;13.488;2024-01-30T11:57:55;8.80;99.90
13850;DHT22;6995;52.618;13.488;2024-01-30T12:00:20;8.90;99.90
13850;DHT22;6995;52.618;13.488;2024-01-30T12:02:51;9.00;99.90
13850;DHT22;6995;52.618;13.488;2024-01-30T12:05:19;9.10;99.90
13850;DHT22;6995;52.618;13.488;2024-01-30T12:07:45;9.30;99.90
13850;DHT22;6995;52.618;13.488;2024-01-30T12:10:12;9.20;99.90
13850;DHT22;6995;52.618;13.488;2024-01-30T12:12:40;9.30;99.90
13850;DHT22;6995;52.618;13.488;2024-01-30T12:15:07;9.40;99.90
13850;DHT22;6995;52.618;13.488;2024-01-30T12:17:34;9.30;99.90
13850;DHT22;6995;52.618;13.488;2024-01-30T12:20:18;9.30;99.90
13850;DHT22;6995;52.618;13.488;2024-01-30T12:22:45;9.30;99.90
13850;DHT22;6995;52.618;13.488;2024-01-30T12:25:13;9.20;99.90
13850;DHT22;6995;52.618;13.488;2024-01-30T12:27:42;9.20;99.90
13850;DHT22;6995;52.618;13.488;2024-01-30T12:30:14;9.30;99.90
13850;DHT22;6995;52.618;13.488;2024-01-30T12:32:46;9.40;99.90
13850;DHT22;6995;52.618;13.488;2024-01-30T12:35:18;9.30;99.90
13850;DHT22;6995;52.618;13.488;2024-01-30T12:37:45;9.40;99.90
13850;DHT22;6995;52.618;13.488;2024-01-30T12:40:11;9.40;99.90
13850;DHT22;6995;52.618;13.488;2024-01-30T12:42:40;9.50;99.90
13850;DHT22;6995;52.618;13.488;2024-01-30T12:45:07;9.50;99.90
13850;DHT22;6995;52.618;13.488;2024-01-30T12:47:34;9.60;99.90
13850;DHT22;6995;52.618;13.488;2024-01-30T12:50:00;9.60;99.90
13850;DHT22;6995;52.618;13.488;2024-01-30T12:52:26;9.60;99.90
13850;DHT22;6995;52.618;13.488;2024-01-30T12:54:52;9.50;99.90
13850;DHT22;6995;52.618;13.488;2024-01-30T12:57:18;9.60;99.90
13850;DHT22;6995;52.618;13.488;2024-01-30T12:59:45;9.60;99.90
13850;DHT22;6995;52.618;13.488;2024-01-30T13:02:12;9.70;99.90
13850;DHT22;6995;52.618;13.488;2024-01-30T13:04:38;9.60;99.90
13850;DHT22;6995;52.618;13.488;2024-01-30T13:07:04;9.70;99.90
13850;DHT22;6995;52.618;13.488;2024-01-30T13:09:30;9.80;99.90
13850;DHT22;6995;52.618;13.488;2024-01-30T13:11:59;10.00;99.90
13850;DHT22;6995;52.618;13.488;2024-01-30T13:14:25;10.20;99.90
13850;DHT22;6995;52.618;13.488;2024-01-30T13:16:51;10.20;99.90
13850;DHT22;6995;52.618;13.488;2024-01-30T13:19:17;10.00;99.90
13850;DHT22;6995;52.618;13.488;2024-01-30T13:21:43;9.90;99.90
13850;DHT22;6995;52.618;13.488;2024-01-30T13:24:09;9.80;99.90
13850;DHT22;6995;52.618;13.488;2024-01-30T13:26:35;9.80;99.90
13850;DHT22;6995;52.618;13.488;2024-01-30T13:29:00;9.60;99.90
13850;DHT22;6995;52.618;13.488;2024-01-30T13:31:26;9.60;99.90
13850;DHT22;6995;52.618;13.488;2024-01-30T13:33:53;9.50;99.90
13850;DHT22;6995;52.618;13.488;2024-01-30T13:36:19;9.40;99.90
13850;DHT22;6995;52.618;13.488;2024-01-30T13:38:45;9.50;99.90
13850;DHT22;6995;52.618;13.488;2024-01-30T13:41:10;9.40;99.90
13850;DHT22;6995;52.618;13.488;2024-01-30T13:43:36;9.40;99.90
13850;DHT22;6995;52.618;13.488;2024-01-30T13:46:02;9.30;99.90
13850;DHT22;6995;52.618;13.488;2024-01-30T13:48:28;9.20;99.90
13850;DHT22;6995;52.618;13.488;2024-01-30T13:50:55;9.20;99.90
13850;DHT22;6995;52.618;13.488;2024-01-30T13:53:21;9.20;99.90
13850;DHT22;6995;52.618;13.488;2024-01-30T13:55:46;9.20;99.90
13850;DHT22;6995;52.618;13.488;2024-01-30T13:58:12;9.30;99.90
13850;DHT22;6995;52.618;13.488;2024-01-30T14:00:38;9.30;99.90
13850;DHT22;6995;52.618;13.488;2024-01-30T14:03:04;9.30;99.90
13850;DHT22;6995;52.618;13.488;2024-01-30T14:05:30;9.30;99.90
13850;DHT22;6995;52.618;13.488;2024-01-30T14:07:57;9.20;99.90
13850;DHT22;6995;52.618;13.488;2024-01-30T14:10:24;9.30;99.90
13850;DHT22;6995;52.618;13.488;2024-01-30T14:12:50;9.30;99.90
13850;DHT22;6995;52.618;13.488;2024-01-30T14:15:16;9.30;99.90
13850;DHT22;6995;52.618;13.488;2024-01-30T14:17:45;9.30;99.90
13850;DHT22;6995;52.618;13.488;2024-01-30T14:20:14;9.20;99.90
13850;DHT22;6995;52.618;13.488;2024-01-30T14:22:42;9.20;99.90
13850;DHT22;6995;52.618;13.488;2024-01-30T14:25:08;9.20;99.90
13850;DHT22;6995;52.618;13.488;2024-01-30T14:27:35;9.20;99.90
13850;DHT22;6995;52.618;13.488;2024-01-30T14:30:00;9.10;99.90
13850;DHT22;6995;52.618;13.488;2024-01-30T14:32:26;9.10;99.90
13850;DHT22;6995;52.618;13.488;2024-01-30T14:34:52;9.10;99.90
13850;DHT22;6995;52.618;13.488;2024-01-30T14:37:21;9.10;99.90
13850;DHT22;6995;52.618;13.488;2024-01-30T14:39:47;9.00;99.90
13850;DHT22;6995;52.618;13.488;2024-01-30T14:42:13;9.00;99.90
13850;DHT22;6995;52.618;13.488;2024-01-30T14:44:39;8.90;99.90
13850;DHT22;6995;52.618;13.488;2024-01-30T14:47:06;9.00;99.90
13850;DHT22;6995;52.618;13.488;2024-01-30T14:49:32;8.90;99.90
13850;DHT22;6995;52.618;13.488;2024-01-30T14:51:58;8.90;99.90
13850;DHT22;6995;52.618;13.488;2024-01-30T14:54:27;8.90;99.90
13850;DHT22;6995;52.618;13.488;2024-01-30T14:56:53;8.80;99.90
13850;DHT22;6995;52.618;13.488;2024-01-30T14:59:19;8.80;99.90
13850;DHT22;6995;52.618;13.488;2024-01-30T15:01:44;8.70;99.90
13850;DHT22;6995;52.618;13.488;2024-01-30T15:04:10;8.70;99.90
13850;DHT22;6995;52.618;13.488;2024-01-30T15:06:36;8.70;99.90
13850;DHT22;6995;52.618;13.488;2024-01-30T15:09:02;8.60;99.90
13850;DHT22;6995;52.618;13.488;2024-01-30T15:11:28;8.50;99.90
13850;DHT22;6995;52.618;13.488;2024-01-30T15:13:54;8.50;99.90
13850;DHT22;6995;52.618;13.488;2024-01-30T15:16:19;8.40;99.90
13850;DHT22;6995;52.618;13.488;2024-01-30T15:18:45;8.30;99.90
13850;DHT22;6995;52.618;13.488;2024-01-30T15:21:11;8.20;99.90
13850;DHT22;6995;52.618;13.488;2024-01-30T15:23:37;8.20;99.90
13850;DHT22;6995;52.618;13.488;2024-01-30T15:26:03;8.20;99.90
13850;DHT22;6995;52.618;13.488;2024-01-30T15:28:38;8.10;99.90
13850;DHT22;6995;52.618;13.488;2024-01-30T15:31:05;8.10;99.90
13850;DHT22;6995;52.618;13.488;2024-01-30T15:33:32;7.90;99.90
13850;DHT22;6995;52.618;13.488;2024-01-30T15:35:59;7.90;99.90
13850;DHT22;6995;52.618;13.488;2024-01-30T15:38:25;7.80;99.90
13850;DHT22;6995;52.618;13.488;2024-01-30T15:40:51;7.80;99.90